Time;durP1;ratioP1;P1;durP2;ratioP2;P2;SDS_P1;SDS_P2;PMS_P1;PMS_P2;Temp;Humidity;BMP_temperature;BMP_pressure;BME280_temperature;BME280_humidity;BME280_pressure;Samples;Min_cycle;Max_cycle;Signal;HPM_P1;HPM_P2
2024/01/26 00:01:56;;;;;;;22.58;9.25;;;2.20;99.90;;;;;;5040387;28;20029;-80
2024/01/26 00:04:22;;;;;;;14.07;8.25;;;2.10;99.90;;;;;;5049775;28;20016;-80
2024/01/26 00:06:48;;;;;;;11.73;6.80;;;2.10;99.90;;;;;;5037866;28;20068;-75
2024/01/26 00:09:15;;;;;;;15.52;7.95;;;2.00;99.90;;;;;;5053779;27;20459;-74
2024/01/26 00:11:42;;;;;;;20.67;11.43;;;2.00;99.90;;;;;;5043289;27;20025;-74
2024/01/26 00:14:09;;;;;;;13.13;7.20;;;1.90;99.90;;;;;;5093676;27;20122;-75
2024/01/26 00:16:37;;;;;;;22.50;12.43;;;1.90;99.90;;;;;;5056426;27;20049;-74
2024/01/26 00:19:03;;;;;;;11.60;7.65;;;1.90;99.90;;;;;;5042203;27;20401;-79
2024/01/26 00:21:29;;;;;;;31.63;16.15;;;1.80;99.90;;;;;;5035089;28;20124;-74
2024/01/26 00:23:55;;;;;;;18.73;10.07;;;1.80;99.90;;;;;;5033830;27;20114;-81
2024/01/26 00:26:20;;;;;;;21.05;11.35;;;1.80;99.90;;;;;;5033263;28;20474;-80
2024/01/26 00:28:46;;;;;;;16.50;8.82;;;1.80;99.90;;;;;;5039072;27;20067;-80
2024/01/26 00:31:18;;;;;;;15.38;9.93;;;1.80;99.90;;;;;;5035309;27;20132;-80
2024/01/26 00:33:45;;;;;;;19.13;8.98;;;1.80;99.90;;;;;;5118411;27;20022;-74
2024/01/26 00:36:13;;;;;;;16.90;10.00;;;1.80;99.90;;;;;;5130386;27;20015;-74
2024/01/26 00:38:39;;;;;;;26.27;12.82;;;1.80;99.90;;;;;;5036474;27;20062;-74
2024/01/26 00:41:05;;;;;;;31.77;15.85;;;1.80;99.90;;;;;;5092611;27;20027;-80
2024/01/26 00:43:31;;;;;;;23.90;12.60;;;1.90;99.90;;;;;;5134474;27;20138;-74
2024/01/26 00:45:57;;;;;;;26.05;14.93;;;1.90;99.90;;;;;;5135214;27;20115;-80
2024/01/26 00:48:23;;;;;;;23.67;13.77;;;1.90;99.90;;;;;;5099886;27;20470;-80
2024/01/26 00:50:54;;;;;;;33.28;15.65;;;1.90;99.90;;;;;;5030775;28;20021;-80
2024/01/26 00:53:21;;;;;;;40.47;20.33;;;1.80;99.90;;;;;;5030485;28;20043;-74
2024/01/26 00:55:46;;;;;;;41.85;18.83;;;1.80;99.90;;;;;;5030578;28;20028;-80
2024/01/26 00:58:12;;;;;;;33.65;16.35;;;1.80;99.90;;;;;;5122602;27;20015;-80
2024/01/26 01:00:38;;;;;;;29.27;14.02;;;1.80;99.90;;;;;;5134393;27;20035;-80
2024/01/26 01:03:04;;;;;;;19.75;9.35;;;1.80;99.90;;;;;;5123162;27;20027;-75
2024/01/26 01:05:30;;;;;;;14.65;8.90;;;1.80;99.90;;;;;;5127209;27;20753;-80
2024/01/26 01:07:56;;;;;;;14.80;8.15;;;1.80;99.90;;;;;;5124815;27;20015;-74
2024/01/26 01:10:21;;;;;;;24.40;12.48;;;1.80;99.90;;;;;;5129276;27;20395;-74
2024/01/26 01:12:47;;;;;;;16.55;9.18;;;1.80;99.90;;;;;;5126965;27;20055;-74
2024/01/26 01:15:13;;;;;;;17.35;9.40;;;1.80;99.90;;;;;;5130040;27;20106;-81
2024/01/26 01:17:43;;;;;;;12.95;8.63;;;1.80;99.90;;;;;;5032757;27;20074;-74
2024/01/26 01:20:10;;;;;;;11.10;6.40;;;1.70;99.90;;;;;;5030197;28;20047;-80
2024/01/26 01:22:43;;;;;;;15.18;7.63;;;1.80;99.90;;;;;;5030622;27;20483;-80
2024/01/26 01:25:13;;;;;;;11.90;6.28;;;1.80;99.90;;;;;;5031502;27;20030;-75
2024/01/26 01:27:39;;;;;;;10.48;6.85;;;1.80;99.90;;;;;;5030344;28;20109;-80
2024/01/26 01:30:06;;;;;;;12.73;6.82;;;1.80;99.90;;;;;;5098929;27;20453;-74
2024/01/26 01:32:32;;;;;;;9.73;7.55;;;1.80;99.90;;;;;;5070906;27;20027;-81
2024/01/26 01:34:58;;;;;;;14.75;8.10;;;1.80;99.90;;;;;;5132115;27;20030;-80
2024/01/26 01:37:24;;;;;;;12.50;7.10;;;1.70;99.90;;;;;;5094352;27;20045;-81
2024/01/26 01:39:49;;;;;;;13.73;6.63;;;1.70;99.90;;;;;;5030947;28;20025;-80
2024/01/26 01:42:15;;;;;;;7.85;5.97;;;1.70;99.90;;;;;;5030062;28;20401;-75
2024/01/26 01:44:45;;;;;;;12.38;5.72;;;1.70;99.90;;;;;;5031185;28;20026;-75
2024/01/26 01:47:12;;;;;;;7.97;5.53;;;1.70;99.90;;;;;;5030865;28;20386;-74
2024/01/26 01:49:39;;;;;;;8.77;5.97;;;1.70;99.90;;;;;;5030682;28;20105;-74
2024/01/26 01:52:15;;;;;;;7.85;4.95;;;1.70;99.90;;;;;;5072578;27;20015;-74
2024/01/26 01:54:41;;;;;;;11.50;5.70;;;1.60;99.90;;;;;;5132463;27;20023;-79
2024/01/26 01:57:12;;;;;;;8.88;4.43;;;1.60;99.90;;;;;;5134707;27;20054;-74
2024/01/26 01:59:38;;;;;;;10.02;5.00;;;1.50;99.90;;;;;;5044799;27;20025;-74
2024/01/26 02:02:05;;;;;;;8.10;4.78;;;1.50;99.90;;;;;;5029102;28;20037;-74
2024/01/26 02:04:31;;;;;;;8.13;4.82;;;1.40;99.90;;;;;;5032768;27;20055;-80
2024/01/26 02:07:02;;;;;;;9.48;5.68;;;1.40;99.90;;;;;;5032044;27;20021;-75
2024/01/26 02:09:28;;;;;;;8.55;5.38;;;1.40;99.90;;;;;;5029528;27;20359;-74
2024/01/26 02:11:55;;;;;;;10.88;4.90;;;1.30;99.90;;;;;;5030482;28;20499;-74
2024/01/26 02:14:21;;;;;;;7.32;4.90;;;1.30;99.90;;;;;;5124707;27;20368;-74
2024/01/26 02:17:00;;;;;;;13.45;7.50;;;1.30;99.90;;;;;;5072612;27;20390;-79
2024/01/26 02:19:27;;;;;;;10.95;6.18;;;1.30;99.90;;;;;;5017456;28;20022;-79
2024/01/26 02:21:53;;;;;;;11.48;6.10;;;1.30;99.90;;;;;;5097924;27;20027;-79
2024/01/26 02:24:19;;;;;;;7.88;5.65;;;1.20;99.90;;;;;;5017661;28;20017;-79
2024/01/26 02:26:45;;;;;;;7.28;5.30;;;1.20;99.90;;;;;;5030484;28;20018;-74
2024/01/26 02:29:11;;;;;;;15.52;9.30;;;1.20;99.90;;;;;;5029009;28;20024;-74
2024/01/26 02:31:37;;;;;;;18.50;9.55;;;1.10;99.90;;;;;;5030823;28;20030;-80
2024/01/26 02:34:02;;;;;;;18.17;10.73;;;1.10;99.90;;;;;;5015852;28;20022;-74
2024/01/26 02:36:31;;;;;;;19.00;10.18;;;1.10;99.90;;;;;;5033279;28;20060;-74
2024/01/26 02:38:56;;;;;;;19.95;10.05;;;1.10;99.90;;;;;;5019126;28;20383;-74
2024/01/26 02:41:22;;;;;;;34.55;17.60;;;1.10;99.90;;;;;;5030219;28;20025;-79
2024/01/26 02:43:48;;;;;;;20.55;11.07;;;1.10;99.90;;;;;;5029807;27;20044;-74
2024/01/26 02:46:15;;;;;;;21.75;11.05;;;1.10;99.90;;;;;;5034163;27;20031;-74
2024/01/26 02:48:40;;;;;;;32.95;16.40;;;1.10;99.90;;;;;;5030622;28;20033;-74
2024/01/26 02:51:06;;;;;;;34.05;17.42;;;1.10;99.90;;;;;;5030541;28;20028;-74
2024/01/26 02:53:32;;;;;;;41.20;21.45;;;1.10;99.90;;;;;;5032033;28;20558;-74
2024/01/26 02:55:58;;;;;;;19.92;12.40;;;1.10;99.90;;;;;;5031205;28;20053;-74
2024/01/26 02:58:24;;;;;;;17.15;9.68;;;1.10;99.90;;;;;;5030200;28;20042;-74
2024/01/26 03:00:49;;;;;;;14.85;8.25;;;1.10;99.90;;;;;;5028888;28;20482;-75
2024/01/26 03:03:15;;;;;;;10.20;7.88;;;1.10;99.90;;;;;;5063714;28;20019;-75
2024/01/26 03:05:41;;;;;;;20.58;10.77;;;1.00;99.90;;;;;;5127790;28;20015;-80
2024/01/26 03:08:07;;;;;;;13.20;8.27;;;1.10;99.90;;;;;;5132857;27;20033;-80
2024/01/26 03:10:33;;;;;;;27.27;14.90;;;1.10;99.90;;;;;;5128982;27;20019;-74
2024/01/26 03:12:59;;;;;;;30.23;16.05;;;1.10;99.90;;;;;;5129853;27;20062;-80
2024/01/26 03:15:25;;;;;;;23.35;12.38;;;1.10;99.90;;;;;;5057965;28;20026;-74
2024/01/26 03:17:50;;;;;;;17.73;9.95;;;1.10;99.90;;;;;;5029659;28;20010;-74
2024/01/26 03:20:17;;;;;;;9.07;5.72;;;1.10;99.90;;;;;;5028225;28;20399;-80
2024/01/26 03:22:46;;;;;;;22.15;13.45;;;1.10;99.90;;;;;;5064439;28;20042;-74
2024/01/26 03:25:11;;;;;;;24.70;15.85;;;1.10;99.90;;;;;;5129931;27;20051;-75
2024/01/26 03:27:37;;;;;;;11.68;7.55;;;1.10;99.90;;;;;;5066230;28;20058;-80
2024/01/26 03:30:06;;;;;;;8.77;5.80;;;1.10;99.90;;;;;;5061525;28;20021;-80
2024/01/26 03:32:31;;;;;;;8.35;5.28;;;1.20;99.90;;;;;;5091993;28;20581;-74
2024/01/26 03:34:57;;;;;;;17.30;10.48;;;1.20;99.90;;;;;;5097279;28;20110;-74
2024/01/26 03:37:22;;;;;;;13.48;8.50;;;1.20;99.90;;;;;;5068521;28;20043;-79
2024/01/26 03:39:48;;;;;;;14.73;10.52;;;1.20;99.90;;;;;;5130053;27;20020;-80
2024/01/26 03:42:14;;;;;;;12.57;8.45;;;1.20;99.90;;;;;;5132584;28;20030;-74
2024/01/26 03:44:41;;;;;;;29.08;15.10;;;1.10;99.90;;;;;;5133007;27;20471;-74
2024/01/26 03:47:06;;;;;;;53.28;27.52;;;1.10;99.90;;;;;;5093598;27;20417;-74
2024/01/26 03:49:32;;;;;;;41.63;19.67;;;1.10;99.90;;;;;;5107108;27;20023;-80
2024/01/26 03:51:58;;;;;;;58.63;23.77;;;1.10;99.90;;;;;;5042420;27;20542;-80
2024/01/26 03:54:23;;;;;;;170.70;75.05;;;1.10;99.90;;;;;;5037649;27;20022;-74
2024/01/26 03:56:49;;;;;;;194.68;70.22;;;1.10;99.90;;;;;;5067002;27;20127;-74
2024/01/26 03:59:14;;;;;;;53.50;23.83;;;1.10;99.90;;;;;;5124748;27;20027;-80
2024/01/26 04:01:42;;;;;;;58.53;27.50;;;1.10;99.90;;;;;;5032448;28;20037;-74
2024/01/26 04:04:08;;;;;;;121.05;55.20;;;1.10;99.90;;;;;;5043215;27;20421;-80
2024/01/26 04:06:40;;;;;;;30.83;15.15;;;1.10;99.90;;;;;;5136697;27;20098;-81
2024/01/26 04:09:10;;;;;;;20.63;12.63;;;1.10;99.90;;;;;;5067211;27;20537;-74
2024/01/26 04:11:36;;;;;;;22.60;13.02;;;1.10;99.90;;;;;;5018170;28;20137;-80
2024/01/26 04:14:02;;;;;;;38.50;21.20;;;1.10;99.90;;;;;;5032333;28;20428;-74
2024/01/26 04:16:28;;;;;;;27.60;15.35;;;1.10;99.90;;;;;;5031784;28;20036;-80
2024/01/26 04:18:53;;;;;;;15.00;7.50;;;1.10;99.90;;;;;;5035270;27;20025;-80
2024/01/26 04:21:19;;;;;;;27.88;18.02;;;1.10;99.90;;;;;;5032739;27;20029;-79
2024/01/26 04:23:45;;;;;;;22.77;13.77;;;1.10;99.90;;;;;;5031740;27;20044;-74
2024/01/26 04:26:11;;;;;;;19.90;12.93;;;1.20;99.90;;;;;;5031072;28;20501;-79
2024/01/26 04:28:37;;;;;;;11.20;7.97;;;1.10;99.90;;;;;;5031626;28;20025;-75
2024/01/26 04:31:07;;;;;;;17.35;8.80;;;1.20;99.90;;;;;;5033251;28;20031;-74
2024/01/26 04:33:33;;;;;;;18.95;8.95;;;1.20;99.90;;;;;;5019346;28;20472;-74
2024/01/26 04:35:59;;;;;;;14.95;9.65;;;1.20;99.90;;;;;;5046353;27;20108;-79
2024/01/26 04:38:25;;;;;;;18.85;9.95;;;1.20;99.90;;;;;;5051869;27;20018;-74
2024/01/26 04:40:51;;;;;;;17.50;9.07;;;1.20;99.90;;;;;;5046831;27;20026;-73
2024/01/26 04:43:17;;;;;;;20.83;9.45;;;1.20;99.90;;;;;;5052021;27;20037;-79
2024/01/26 04:45:43;;;;;;;13.35;8.82;;;1.20;99.90;;;;;;5034251;27;20024;-73
2024/01/26 04:48:09;;;;;;;16.92;9.00;;;1.20;99.90;;;;;;5048293;27;20096;-80
2024/01/26 04:50:34;;;;;;;19.17;10.18;;;1.20;99.90;;;;;;5040864;27;20497;-74
2024/01/26 04:53:00;;;;;;;18.83;10.57;;;1.20;99.90;;;;;;5047108;27;20516;-80
2024/01/26 04:55:26;;;;;;;17.75;9.63;;;1.20;99.90;;;;;;5042672;27;20029;-73
2024/01/26 04:57:52;;;;;;;19.42;10.05;;;1.20;99.90;;;;;;5051087;27;20092;-80
2024/01/26 05:00:18;;;;;;;22.50;10.18;;;1.20;99.90;;;;;;5035936;27;20112;-74
2024/01/26 05:02:44;;;;;;;19.30;9.93;;;1.20;99.90;;;;;;5101005;27;20034;-73
2024/01/26 05:05:11;;;;;;;18.77;10.13;;;1.20;99.90;;;;;;5032218;28;20048;-74
2024/01/26 05:07:38;;;;;;;20.67;10.52;;;1.20;99.90;;;;;;5063561;27;20429;-74
2024/01/26 05:10:05;;;;;;;16.98;10.10;;;1.20;99.90;;;;;;5135271;27;20460;-74
2024/01/26 05:12:31;;;;;;;25.65;10.35;;;1.10;99.90;;;;;;5031965;28;20054;-81
2024/01/26 05:14:57;;;;;;;19.30;9.38;;;1.20;99.90;;;;;;5031714;28;20105;-80
2024/01/26 05:17:22;;;;;;;15.95;8.27;;;1.20;99.90;;;;;;5133665;27;20122;-80
2024/01/26 05:19:48;;;;;;;26.92;9.68;;;1.20;99.90;;;;;;5133705;27;20452;-81
2024/01/26 05:22:14;;;;;;;23.85;10.00;;;1.20;99.90;;;;;;5133252;27;20538;-81
2024/01/26 05:24:39;;;;;;;24.20;9.15;;;1.20;99.90;;;;;;5063243;27;20470;-74
2024/01/26 05:27:05;;;;;;;13.73;7.57;;;1.20;99.90;;;;;;5132673;27;20019;-75
2024/01/26 05:29:31;;;;;;;13.55;8.10;;;1.20;99.90;;;;;;5121271;27;20457;-80
2024/01/26 05:31:56;;;;;;;13.02;6.15;;;1.20;99.90;;;;;;5051796;27;20030;-74
2024/01/26 05:34:22;;;;;;;17.75;7.28;;;1.20;99.90;;;;;;5132147;27;20027;-80
2024/01/26 05:36:48;;;;;;;16.08;6.43;;;1.20;99.90;;;;;;5051635;27;20023;-74
2024/01/26 05:39:14;;;;;;;17.17;6.40;;;1.20;99.90;;;;;;5063964;27;20030;-81
2024/01/26 05:41:40;;;;;;;16.70;6.03;;;1.30;99.90;;;;;;5051863;27;20101;-80
2024/01/26 05:44:06;;;;;;;13.48;8.02;;;1.30;99.90;;;;;;5133156;27;20160;-74
2024/01/26 05:46:32;;;;;;;47.15;19.70;;;1.30;99.90;;;;;;5087167;27;20029;-73
2024/01/26 05:48:58;;;;;;;225.45;85.32;;;1.30;99.90;;;;;;5037079;27;20021;-80
2024/01/26 05:51:24;;;;;;;473.95;188.80;;;1.30;99.90;;;;;;5033276;27;20057;-80
2024/01/26 05:53:53;;;;;;;119.43;41.83;;;1.30;99.90;;;;;;5077172;27;20449;-80
2024/01/26 05:56:19;;;;;;;27.20;10.32;;;1.30;99.90;;;;;;5072833;27;20030;-80
2024/01/26 05:58:45;;;;;;;22.95;7.68;;;1.30;99.90;;;;;;5087733;27;20027;-81
2024/01/26 06:01:11;;;;;;;23.40;8.30;;;1.30;99.90;;;;;;5030616;28;20382;-74
2024/01/26 06:03:37;;;;;;;26.55;9.13;;;1.30;99.90;;;;;;5029691;28;20041;-74
2024/01/26 06:06:03;;;;;;;19.63;8.90;;;1.30;99.90;;;;;;5024882;28;20064;-80
2024/01/26 06:08:29;;;;;;;16.38;7.95;;;1.30;99.90;;;;;;5021511;28;20105;-81
2024/01/26 06:10:56;;;;;;;21.13;7.70;;;1.30;99.90;;;;;;5085814;27;20105;-79
2024/01/26 06:13:23;;;;;;;24.48;8.15;;;1.30;99.90;;;;;;5041004;27;20047;-74
2024/01/26 06:15:49;;;;;;;15.65;7.15;;;1.30;99.90;;;;;;5040601;27;20039;-74
2024/01/26 06:18:15;;;;;;;20.98;7.07;;;1.30;99.90;;;;;;5037279;27;20084;-81
2024/01/26 06:20:41;;;;;;;14.73;7.00;;;1.30;99.90;;;;;;5038524;27;20030;-74
2024/01/26 06:23:06;;;;;;;15.70;7.75;;;1.30;99.90;;;;;;5036684;27;20038;-74
2024/01/26 06:25:32;;;;;;;20.27;9.52;;;1.40;99.90;;;;;;5046637;27;20078;-75
2024/01/26 06:27:58;;;;;;;21.50;8.82;;;1.40;99.90;;;;;;5046710;27;20007;-74
2024/01/26 06:30:24;;;;;;;18.75;6.72;;;1.40;99.90;;;;;;5035560;27;20030;-75
2024/01/26 06:32:51;;;;;;;20.63;7.35;;;1.50;99.90;;;;;;5031023;27;20029;-74
2024/01/26 06:35:17;;;;;;;18.10;6.68;;;1.50;99.90;;;;;;5019125;28;20037;-74
2024/01/26 06:37:43;;;;;;;12.65;6.38;;;1.50;99.90;;;;;;5066399;27;20384;-81
2024/01/26 06:40:10;;;;;;;17.98;6.82;;;1.40;99.90;;;;;;5028417;28;20021;-74
2024/01/26 06:42:38;;;;;;;12.98;5.93;;;1.40;99.90;;;;;;5063983;27;20487;-80
2024/01/26 06:45:04;;;;;;;15.00;6.60;;;1.40;99.90;;;;;;5053974;27;20419;-80
2024/01/26 06:47:29;;;;;;;17.77;6.80;;;1.40;99.90;;;;;;5056792;27;20053;-80
2024/01/26 06:49:55;;;;;;;20.90;8.63;;;1.50;99.90;;;;;;5126981;27;20020;-74
2024/01/26 06:52:21;;;;;;;13.15;6.10;;;1.40;99.90;;;;;;5122509;27;20026;-74
2024/01/26 06:54:46;;;;;;;16.77;6.13;;;1.40;99.90;;;;;;5128234;27;20015;-74
2024/01/26 06:57:12;;;;;;;22.33;8.40;;;1.40;99.90;;;;;;5057679;27;20029;-75
2024/01/26 06:59:38;;;;;;;14.73;6.78;;;1.40;99.90;;;;;;5089755;27;20053;-74
2024/01/26 07:02:04;;;;;;;14.60;6.78;;;1.40;99.90;;;;;;5098754;27;20030;-81
2024/01/26 07:04:30;;;;;;;16.77;7.40;;;1.40;99.90;;;;;;5086047;27;20025;-80
2024/01/26 07:06:56;;;;;;;14.90;6.72;;;1.40;99.90;;;;;;5095464;28;20137;-75
2024/01/26 07:09:21;;;;;;;23.65;8.02;;;1.40;99.90;;;;;;5075629;27;20027;-80
2024/01/26 07:11:47;;;;;;;20.25;6.72;;;1.40;99.90;;;;;;5093895;28;20018;-80
2024/01/26 07:14:14;;;;;;;13.02;6.03;;;1.40;99.90;;;;;;5125885;28;20023;-80
2024/01/26 07:16:39;;;;;;;16.35;6.53;;;1.40;99.90;;;;;;5122179;27;20031;-75
2024/01/26 07:19:05;;;;;;;16.48;6.32;;;1.40;99.90;;;;;;5127673;27;20398;-80
2024/01/26 07:21:31;;;;;;;14.60;5.45;;;1.50;99.90;;;;;;5130651;27;20064;-74
2024/01/26 07:23:58;;;;;;;13.48;6.00;;;1.50;99.90;;;;;;5133345;27;20035;-75
2024/01/26 07:26:23;;;;;;;20.33;6.65;;;1.40;99.90;;;;;;5133553;27;20019;-81
2024/01/26 07:28:50;;;;;;;20.50;5.95;;;1.50;99.90;;;;;;5135009;27;20029;-74
2024/01/26 07:31:16;;;;;;;19.02;7.38;;;1.50;99.90;;;;;;5063197;27;20041;-80
2024/01/26 07:33:42;;;;;;;10.93;5.88;;;1.40;99.90;;;;;;5135280;27;20038;-79
2024/01/26 07:36:07;;;;;;;18.77;5.90;;;1.40;99.90;;;;;;5062107;27;20025;-74
2024/01/26 07:38:33;;;;;;;18.17;7.55;;;1.50;99.90;;;;;;5096670;27;20066;-75
2024/01/26 07:40:59;;;;;;;31.75;7.10;;;1.50;99.90;;;;;;5104058;27;20031;-80
2024/01/26 07:43:25;;;;;;;17.00;6.82;;;1.50;99.90;;;;;;5135466;27;20046;-74
2024/01/26 07:45:50;;;;;;;25.17;7.97;;;1.60;99.90;;;;;;5131753;27;20019;-79
2024/01/26 07:48:16;;;;;;;21.55;7.13;;;1.60;99.90;;;;;;5134470;27;20476;-80
2024/01/26 07:50:42;;;;;;;13.75;6.35;;;1.60;99.90;;;;;;5133738;27;20026;-80
2024/01/26 07:53:09;;;;;;;15.00;6.40;;;1.60;99.90;;;;;;5096982;27;20497;-80
2024/01/26 07:55:34;;;;;;;27.17;9.48;;;1.60;99.90;;;;;;5099267;27;20023;-80
2024/01/26 07:58:00;;;;;;;122.65;48.03;;;1.60;99.90;;;;;;5065315;27;20022;-74
2024/01/26 08:00:26;;;;;;;89.00;34.75;;;1.70;99.90;;;;;;5064835;27;20022;-80
2024/01/26 08:02:52;;;;;;;46.47;16.83;;;1.70;99.90;;;;;;5135690;27;20023;-74
2024/01/26 08:05:18;;;;;;;377.88;131.57;;;1.70;99.90;;;;;;5134245;27;20030;-80
2024/01/26 08:07:45;;;;;;;166.80;60.28;;;1.70;99.90;;;;;;5134607;27;20015;-75
2024/01/26 08:10:11;;;;;;;141.55;49.38;;;1.70;99.90;;;;;;5133940;27;20042;-74
2024/01/26 08:12:37;;;;;;;616.95;243.57;;;1.70;99.90;;;;;;5135539;27;20047;-81
2024/01/26 08:15:03;;;;;;;132.43;44.88;;;1.70;99.90;;;;;;5062077;27;20120;-80
2024/01/26 08:17:30;;;;;;;141.80;49.50;;;1.70;99.90;;;;;;5132653;27;20016;-80
2024/01/26 08:19:57;;;;;;;20.50;7.05;;;1.70;99.90;;;;;;5131149;27;20026;-75
2024/01/26 08:22:23;;;;;;;82.65;28.00;;;1.80;99.90;;;;;;5092489;27;20451;-74
2024/01/26 08:24:48;;;;;;;217.20;76.65;;;1.80;99.90;;;;;;5102774;27;20043;-75
2024/01/26 08:27:14;;;;;;;72.22;25.50;;;1.80;99.90;;;;;;5131764;27;20449;-80
2024/01/26 08:29:40;;;;;;;91.32;26.85;;;1.90;99.90;;;;;;5132302;27;20019;-74
2024/01/26 08:32:06;;;;;;;151.80;48.80;;;1.90;99.90;;;;;;5133913;27;20015;-80
2024/01/26 08:34:32;;;;;;;330.55;97.95;;;1.90;99.90;;;;;;5134593;27;20094;-74
2024/01/26 08:36:58;;;;;;;60.78;20.70;;;2.00;99.90;;;;;;5094968;27;20014;-80
2024/01/26 08:39:24;;;;;;;105.88;32.83;;;2.00;99.90;;;;;;5103741;27;20155;-75
2024/01/26 08:41:49;;;;;;;35.60;13.65;;;2.00;99.90;;;;;;5134956;27;20016;-80
2024/01/26 08:44:15;;;;;;;108.18;35.30;;;2.00;99.90;;;;;;5132975;27;20069;-75
2024/01/26 08:46:41;;;;;;;44.85;16.98;;;2.00;99.90;;;;;;5132701;27;20109;-80
2024/01/26 08:49:06;;;;;;;138.10;50.45;;;2.10;99.90;;;;;;5133333;27;20102;-80
2024/01/26 08:51:34;;;;;;;152.27;61.30;;;2.10;99.90;;;;;;5093309;27;20025;-74
2024/01/26 08:54:00;;;;;;;158.20;62.83;;;2.20;99.90;;;;;;5034551;27;20021;-80
2024/01/26 08:56:26;;;;;;;145.25;52.90;;;2.30;99.90;;;;;;5134928;27;20019;-80
2024/01/26 08:58:52;;;;;;;181.48;63.50;;;2.30;99.90;;;;;;5127774;27;20038;-80
2024/01/26 09:01:19;;;;;;;142.40;53.30;;;2.30;99.90;;;;;;5072613;27;20054;-80
2024/01/26 09:03:45;;;;;;;77.22;26.75;;;2.30;99.90;;;;;;5128093;27;20028;-80
2024/01/26 09:06:10;;;;;;;256.63;87.10;;;2.30;99.90;;;;;;5030584;28;20036;-79
2024/01/26 09:08:36;;;;;;;151.50;54.88;;;2.30;99.90;;;;;;5032129;27;20105;-74
2024/01/26 09:11:02;;;;;;;158.10;50.58;;;2.30;99.90;;;;;;5031862;27;20042;-80
2024/01/26 09:13:27;;;;;;;380.67;118.70;;;2.40;99.90;;;;;;5107610;27;20043;-75
2024/01/26 09:15:53;;;;;;;307.13;100.82;;;2.50;99.90;;;;;;5134162;27;20023;-74
2024/01/26 09:18:19;;;;;;;252.63;79.85;;;2.50;99.90;;;;;;5062969;27;20471;-74
2024/01/26 09:20:49;;;;;;;312.98;100.40;;;2.60;99.90;;;;;;5133866;27;20044;-74
2024/01/26 09:23:15;;;;;;;341.05;105.75;;;2.70;99.90;;;;;;5053166;27;20088;-80
2024/01/26 09:25:42;;;;;;;340.55;101.97;;;2.70;99.90;;;;;;5030772;28;20394;-80
2024/01/26 09:28:07;;;;;;;298.13;100.85;;;2.70;99.90;;;;;;5033427;27;20017;-80
2024/01/26 09:30:33;;;;;;;146.63;45.53;;;2.70;99.90;;;;;;5033147;27;20029;-80
2024/01/26 09:32:59;;;;;;;196.65;64.43;;;2.70;99.90;;;;;;5032909;27;20022;-75
2024/01/26 09:35:25;;;;;;;242.27;77.03;;;2.70;99.90;;;;;;5031881;27;20030;-79
2024/01/26 09:37:50;;;;;;;274.10;84.68;;;2.70;99.90;;;;;;5035261;27;20025;-80
2024/01/26 09:40:18;;;;;;;168.07;54.00;;;2.70;99.90;;;;;;5032328;27;20017;-74
2024/01/26 09:42:44;;;;;;;244.20;84.72;;;2.80;99.90;;;;;;5034408;27;20126;-79
2024/01/26 09:45:11;;;;;;;204.73;68.38;;;2.90;99.90;;;;;;5031522;27;20053;-80
2024/01/26 09:47:39;;;;;;;123.10;40.53;;;2.90;99.90;;;;;;5038209;27;20007;-80
2024/01/26 09:50:06;;;;;;;189.00;55.20;;;2.90;99.90;;;;;;5035671;27;20032;-74
2024/01/26 09:52:35;;;;;;;306.67;103.78;;;3.00;99.90;;;;;;5041684;27;20019;-75
2024/01/26 09:55:01;;;;;;;104.65;38.38;;;3.00;99.90;;;;;;5037149;27;20049;-80
2024/01/26 09:57:29;;;;;;;163.32;60.28;;;3.00;99.90;;;;;;5039333;27;20426;-80
2024/01/26 09:59:55;;;;;;;77.35;28.20;;;3.10;99.90;;;;;;5035502;27;20017;-80
2024/01/26 10:02:22;;;;;;;85.50;33.50;;;3.20;99.90;;;;;;5031872;28;20033;-74
2024/01/26 10:04:48;;;;;;;38.53;17.35;;;3.20;99.90;;;;;;5031309;28;20022;-80
2024/01/26 10:07:15;;;;;;;86.22;37.25;;;3.20;99.90;;;;;;5031312;28;20116;-75
2024/01/26 10:09:41;;;;;;;51.15;22.20;;;3.30;99.90;;;;;;5029656;28;20049;-75
2024/01/26 10:12:10;;;;;;;51.17;21.88;;;3.30;99.90;;;;;;5028918;28;20046;-79
2024/01/26 10:14:37;;;;;;;45.72;19.65;;;3.30;99.90;;;;;;5032420;28;20389;-80
2024/01/26 10:17:03;;;;;;;28.92;13.38;;;3.30;99.90;;;;;;5033439;27;20013;-75
2024/01/26 10:19:30;;;;;;;41.97;18.60;;;3.40;99.90;;;;;;5032096;28;20033;-81
2024/01/26 10:21:56;;;;;;;32.15;13.30;;;3.30;99.90;;;;;;5029603;28;20045;-80
2024/01/26 10:24:23;;;;;;;29.95;11.05;;;3.30;99.90;;;;;;5029035;28;20068;-75
2024/01/26 10:26:50;;;;;;;27.73;10.52;;;3.40;99.90;;;;;;5030027;27;20044;-75
2024/01/26 10:29:16;;;;;;;113.18;44.45;;;3.30;99.90;;;;;;5089037;27;20046;-75
2024/01/26 10:31:42;;;;;;;60.08;26.02;;;3.30;99.90;;;;;;5061840;27;20023;-75
2024/01/26 10:34:13;;;;;;;31.33;14.00;;;3.40;99.90;;;;;;5133189;27;20528;-80
2024/01/26 10:36:45;;;;;;;17.57;8.37;;;3.40;99.90;;;;;;5061914;27;20015;-75
2024/01/26 10:39:22;;;;;;;62.17;24.10;;;3.40;99.90;;;;;;5066683;27;20106;-75
2024/01/26 10:41:49;;;;;;;12.90;5.45;;;3.40;99.90;;;;;;5018323;28;20029;-80
2024/01/26 10:44:16;;;;;;;48.95;20.98;;;3.50;99.90;;;;;;5030882;28;20498;-80
2024/01/26 10:46:42;;;;;;;68.55;25.58;;;3.40;99.90;;;;;;5031381;28;20037;-75
2024/01/26 10:49:12;;;;;;;54.88;22.95;;;3.50;99.90;;;;;;5036404;27;20125;-75
2024/01/26 10:51:42;;;;;;;108.45;41.65;;;3.50;99.90;;;;;;5088132;27;20028;-79
2024/01/26 10:54:12;;;;;;;80.63;31.23;;;3.50;99.90;;;;;;5109876;27;20038;-75
2024/01/26 10:56:38;;;;;;;63.33;23.92;;;3.60;99.90;;;;;;5082341;27;20022;-75
2024/01/26 10:59:06;;;;;;;62.88;25.48;;;3.60;99.90;;;;;;5028643;28;20054;-80
2024/01/26 11:01:33;;;;;;;25.95;12.50;;;3.60;99.90;;;;;;5080248;27;20034;-80
2024/01/26 11:04:00;;;;;;;14.70;5.65;;;3.60;99.90;;;;;;5105452;27;20057;-80
2024/01/26 11:06:31;;;;;;;18.95;6.03;;;3.60;99.90;;;;;;5029672;28;20022;-75
2024/01/26 11:09:01;;;;;;;14.93;6.32;;;3.60;99.90;;;;;;5120482;28;20115;-75
2024/01/26 11:11:34;;;;;;;23.95;13.63;;;3.50;99.90;;;;;;5133124;27;20037;-75
2024/01/26 11:14:01;;;;;;;21.30;11.55;;;3.50;99.90;;;;;;5130827;28;20084;-76
2024/01/26 11:16:40;;;;;;;28.85;12.57;;;3.50;99.90;;;;;;5065380;28;20053;-75
2024/01/26 11:19:06;;;;;;;21.95;9.10;;;3.40;99.90;;;;;;5016552;28;20059;-81
2024/01/26 11:21:39;;;;;;;30.90;13.15;;;3.40;99.90;;;;;;5101098;28;20046;-81
2024/01/26 11:24:16;;;;;;;46.25;19.70;;;3.40;99.90;;;;;;5132392;27;20046;-75
2024/01/26 11:26:42;;;;;;;24.30;12.10;;;3.50;99.90;;;;;;5128909;27;20019;-80
2024/01/26 11:29:12;;;;;;;16.23;8.88;;;3.60;99.90;;;;;;5130650;27;20480;-81
2024/01/26 11:31:40;;;;;;;19.88;8.05;;;3.60;99.90;;;;;;5106573;28;20032;-75
2024/01/26 11:34:17;;;;;;;51.33;20.67;;;3.60;99.90;;;;;;5084369;28;20361;-75
2024/01/26 11:36:43;;;;;;;60.72;24.05;;;3.50;99.90;;;;;;5096502;28;20017;-75
2024/01/26 11:39:13;;;;;;;27.13;12.57;;;3.60;99.90;;;;;;5087348;28;20027;-80
2024/01/26 11:41:45;;;;;;;96.63;36.10;;;3.60;99.90;;;;;;5046914;28;20025;-81
2024/01/26 11:44:20;;;;;;;88.60;32.72;;;3.70;99.90;;;;;;5107226;27;20031;-80
2024/01/26 11:46:46;;;;;;;98.97;34.85;;;3.70;99.90;;;;;;5075855;28;20036;-75
2024/01/26 11:49:12;;;;;;;127.47;39.03;;;3.70;99.90;;;;;;5064902;28;20390;-76
2024/01/26 11:51:38;;;;;;;85.18;26.00;;;3.70;99.90;;;;;;5102861;28;20011;-80
2024/01/26 11:54:04;;;;;;;91.60;28.65;;;3.70;99.90;;;;;;5126399;28;20106;-80
2024/01/26 11:56:30;;;;;;;105.25;36.38;;;3.70;99.90;;;;;;5104428;28;20042;-76
2024/01/26 11:58:57;;;;;;;64.60;23.88;;;3.70;99.90;;;;;;5104460;27;20016;-80
2024/01/26 12:01:23;;;;;;;28.70;12.05;;;3.80;99.90;;;;;;5065667;28;20040;-81
2024/01/26 12:03:50;;;;;;;93.72;35.40;;;3.80;99.90;;;;;;5114790;28;20042;-81
2024/01/26 12:06:16;;;;;;;85.28;31.55;;;3.80;99.90;;;;;;5030510;27;20101;-81
2024/01/26 12:08:41;;;;;;;87.82;32.35;;;3.90;99.90;;;;;;5112120;27;20106;-79
2024/01/26 12:11:10;;;;;;;72.88;27.42;;;4.00;99.90;;;;;;5090356;27;20073;-81
2024/01/26 12:13:36;;;;;;;69.38;26.15;;;4.00;99.90;;;;;;5072154;27;20134;-83
2024/01/26 12:16:03;;;;;;;45.38;17.92;;;4.00;99.90;;;;;;5042062;27;20029;-82
2024/01/26 12:18:29;;;;;;;62.17;26.20;;;4.00;99.90;;;;;;5087097;27;20023;-82
2024/01/26 12:20:56;;;;;;;74.93;30.00;;;4.00;99.90;;;;;;5052227;27;20046;-82
2024/01/26 12:23:22;;;;;;;64.40;25.48;;;4.00;99.90;;;;;;5108324;27;20031;-81
2024/01/26 12:25:52;;;;;;;53.38;23.65;;;4.00;99.90;;;;;;5022646;28;20033;-83
2024/01/26 12:28:26;;;;;;;42.65;18.13;;;4.10;99.90;;;;;;5038504;27;20059;-82
2024/01/26 12:30:52;;;;;;;39.35;12.98;;;4.00;99.90;;;;;;5054007;27;20072;-83
2024/01/26 12:33:18;;;;;;;58.53;24.67;;;4.10;99.90;;;;;;5111951;27;20029;-83
2024/01/26 12:35:46;;;;;;;41.60;16.70;;;4.00;99.90;;;;;;5020503;27;20422;-84
2024/01/26 12:38:12;;;;;;;31.60;13.73;;;4.00;99.90;;;;;;5031886;27;20098;-83